createdAt,value
2023-04-09T00:00:00.090Z, 74.1
2023-04-09T00:02:00.098Z, 74
2023-04-09T00:04:00.206Z, 74.1
2023-04-09T00:06:00.090Z, 74.2
2023-04-09T00:08:00.042Z, 74.1
2023-04-09T00:10:00.059Z, 73.5
2023-04-09T00:12:00.066Z, 72.6
2023-04-09T00:14:00.149Z, 72.3
2023-04-09T00:16:00.184Z, 72
2023-04-09T00:18:00.231Z, 72.3
2023-04-09T00:20:00.195Z, 71.8
2023-04-09T00:22:00.103Z, 71.4
2023-04-09T00:24:00.128Z, 70.6
2023-04-09T00:26:00.127Z, 74
2023-04-09T00:28:00.127Z, 78.3
2023-04-09T00:30:00.166Z, 81.1
2023-04-09T00:32:00.197Z, 82
2023-04-09T00:34:00.149Z, 82.2
2023-04-09T00:36:00.204Z, 81.5
2023-04-09T00:38:00.145Z, 80.9
2023-04-09T00:40:00.155Z, 79.9
2023-04-09T00:42:00.249Z, 78.3
2023-04-09T00:44:00.072Z, 76.5
2023-04-09T00:46:00.078Z, 75.4
2023-04-09T00:48:00.126Z, 75.7
2023-04-09T00:50:00.053Z, 76.9
2023-04-09T00:52:00.052Z, 77.2
2023-04-09T00:54:00.062Z, 76.7
2023-04-09T00:56:00.117Z, 75.3
2023-04-09T00:58:00.063Z, 76.2
2023-04-09T01:00:00.068Z, 76.7
2023-04-09T01:02:00.136Z, 75.4
2023-04-09T01:04:00.056Z, 77.4
2023-04-09T01:06:00.060Z, 79.6
2023-04-09T01:08:00.102Z, 80.3
2023-04-09T01:10:00.046Z, 79.3
2023-04-09T01:12:00.050Z, 77.5
2023-04-09T01:14:00.133Z, 75.4
2023-04-09T01:16:00.115Z, 74.3
2023-04-09T01:18:00.204Z, 73.7
2023-04-09T01:20:00.137Z, 73.4
2023-04-09T01:22:00.103Z, 73.2
2023-04-09T01:24:00.124Z, 73.1
2023-04-09T01:26:00.136Z, 73.3
2023-04-09T01:28:00.151Z, 75.4
2023-04-09T01:30:00.117Z, 76.9
2023-04-09T01:32:00.125Z, 76.7
2023-04-09T01:34:00.123Z, 76.1
2023-04-09T01:36:00.152Z, 75.7
2023-04-09T01:38:00.116Z, 75
2023-04-09T01:40:00.133Z, 74.5
2023-04-09T01:42:00.118Z, 74.5
2023-04-09T01:44:00.089Z, 74.5
2023-04-09T01:46:00.188Z, 75.2
2023-04-09T01:48:00.150Z, 75.7
2023-04-09T01:50:00.111Z, 75.9
2023-04-09T01:52:00.090Z, 75.9
2023-04-09T01:54:00.137Z, 76.7
2023-04-09T01:56:00.077Z, 77.9
2023-04-09T01:58:00.099Z, 78.1
2023-04-09T02:00:00.092Z, 78.6
2023-04-09T02:02:00.212Z, 79.2
2023-04-09T02:04:00.147Z, 79.2
2023-04-09T02:06:00.113Z, 79
2023-04-09T02:08:00.071Z, 78.3
2023-04-09T02:10:00.104Z, 78.1
2023-04-09T02:12:00.109Z, 78.7
2023-04-09T02:14:00.078Z, 78.7
2023-04-09T02:16:00.137Z, 78
2023-04-09T02:18:00.153Z, 77.7
2023-04-09T02:20:00.122Z, 78.1
2023-04-09T02:22:00.085Z, 80.1
2023-04-09T02:24:00.140Z, 80.8
2023-04-09T02:26:00.112Z, 79.6
2023-04-09T02:28:00.073Z, 78.4
2023-04-09T02:30:00.106Z, 78.3
2023-04-09T02:32:00.120Z, 78.8
2023-04-09T02:34:00.123Z, 79.1
2023-04-09T02:36:00.105Z, 79.4
2023-04-09T02:38:00.077Z, 79.5
2023-04-09T02:40:00.100Z, 79.6
2023-04-09T02:42:00.133Z, 80
2023-04-09T02:44:00.078Z, 80.1
2023-04-09T02:46:00.170Z, 80
2023-04-09T02:48:00.140Z, 79.7
2023-04-09T02:50:00.132Z, 79.3
2023-04-09T02:52:00.065Z, 79
2023-04-09T02:54:00.081Z, 78.9
2023-04-09T02:56:00.061Z, 79.4
2023-04-09T02:58:00.098Z, 78.7
2023-04-09T03:00:00.079Z, 78.4
2023-04-09T03:02:00.222Z, 77.9
2023-04-09T03:04:00.148Z, 77.3
2023-04-09T03:06:00.097Z, 76.8
2023-04-09T03:08:00.066Z, 77
2023-04-09T03:10:00.071Z, 77
2023-04-09T03:12:00.113Z, 78.1
2023-04-09T03:14:00.088Z, 78.4
2023-04-09T03:16:00.128Z, 78.3
2023-04-09T03:18:00.169Z, 78.6
2023-04-09T03:20:00.127Z, 78.8
2023-04-09T03:22:00.111Z, 78.7
2023-04-09T03:24:00.132Z, 78.4
2023-04-09T03:26:00.100Z, 77.9
2023-04-09T03:28:00.126Z, 78
2023-04-09T03:30:00.158Z, 77.9
2023-04-09T03:32:00.118Z, 77.6
2023-04-09T03:34:00.123Z, 77.1
2023-04-09T03:36:00.170Z, 76.6
2023-04-09T03:38:00.141Z, 77.5
2023-04-09T03:40:00.144Z, 78
2023-04-09T03:42:00.184Z, 77.9
2023-04-09T03:44:00.072Z, 78.1
2023-04-09T03:46:00.060Z, 77.8
2023-04-09T03:48:00.114Z, 77.6
2023-04-09T03:50:00.062Z, 77.5
2023-04-09T03:52:00.100Z, 78.5
2023-04-09T03:54:00.080Z, 78.9
2023-04-09T03:56:00.052Z, 79.2
2023-04-09T03:58:00.060Z, 79.7
2023-04-09T04:00:00.071Z, 79.7
2023-04-09T04:02:00.118Z, 79.4
2023-04-09T04:04:00.129Z, 79.2
2023-04-09T04:06:00.056Z, 79
2023-04-09T04:08:00.071Z, 78.4
2023-04-09T04:10:00.060Z, 77.8
2023-04-09T04:12:00.044Z, 77.3
2023-04-09T04:14:00.108Z, 76.9
2023-04-09T04:16:00.126Z, 76.6
2023-04-09T04:18:00.127Z, 76.7
2023-04-09T04:20:00.376Z, 76.6
2023-04-09T04:22:00.137Z, 76.1
2023-04-09T04:24:00.130Z, 75.1
2023-04-09T04:26:00.126Z, 74.2
2023-04-09T04:28:00.125Z, 74.3
2023-04-09T04:30:00.301Z, 75.7
2023-04-09T04:32:00.284Z, 77.8
2023-04-09T04:34:00.163Z, 79.4
2023-04-09T04:36:00.207Z, 80.7
2023-04-09T04:38:00.141Z, 81.6
2023-04-09T04:40:00.146Z, 82
2023-04-09T04:42:00.114Z, 81.1
2023-04-09T04:44:00.082Z, 79.9
2023-04-09T04:46:00.149Z, 79
2023-04-09T04:48:00.110Z, 78.6
2023-04-09T04:50:00.067Z, 79
2023-04-09T04:52:00.067Z, 79.4
2023-04-09T04:54:00.063Z, 79
2023-04-09T04:56:00.067Z, 78.8
2023-04-09T04:58:00.061Z, 78.3
2023-04-09T05:00:00.075Z, 78.9
2023-04-09T05:02:00.107Z, 78.8
2023-04-09T05:04:00.151Z, 79
2023-04-09T05:06:00.070Z, 79.3
2023-04-09T05:08:00.080Z, 79.4
2023-04-09T05:10:00.057Z, 80.9
2023-04-09T05:12:00.053Z, 82.4
2023-04-09T05:14:00.110Z, 83.4
2023-04-09T05:16:00.114Z, 84.1
2023-04-09T05:18:00.216Z, 84.9
2023-04-09T05:20:00.171Z, 85.6
2023-04-09T05:22:00.104Z, 84.9
2023-04-09T05:24:00.136Z, 83.2
2023-04-09T05:26:00.121Z, 82.3
2023-04-09T05:28:00.137Z, 84.3
2023-04-09T05:30:00.998Z, 86.3
2023-04-09T05:32:00.129Z, 86.6
2023-04-09T05:34:00.114Z, 86
2023-04-09T05:36:00.186Z, 85.4
2023-04-09T05:38:00.150Z, 84.2
2023-04-09T05:40:00.180Z, 82.7
2023-04-09T05:42:00.134Z, 82.5
2023-04-09T05:44:00.980Z, 81.5
2023-04-09T05:46:00.121Z, 80.2
2023-04-09T05:48:00.193Z, 79.9
2023-04-09T05:50:00.047Z, 78.1
2023-04-09T05:52:00.069Z, 75.7
2023-04-09T05:54:00.060Z, 77.2
2023-04-09T05:56:00.058Z, 78.6
2023-04-09T05:58:00.065Z, 79.5
2023-04-09T06:00:00.065Z, 79.5
2023-04-09T06:02:00.133Z, 78.3
2023-04-09T06:04:00.358Z, 77.8
2023-04-09T06:06:00.056Z, 77.4
2023-04-09T06:08:00.049Z, 76.1
2023-04-09T06:10:00.060Z, 74.5
2023-04-09T06:12:00.058Z, 73.9
2023-04-09T06:14:00.119Z, 72.5
2023-04-09T06:16:00.157Z, 71.8
2023-04-09T06:18:00.168Z, 69.4
2023-04-09T06:20:00.158Z, 68.4
2023-04-09T06:22:00.097Z, 69.8
2023-04-09T06:24:00.127Z, 73.4
2023-04-09T06:26:00.119Z, 75.8
2023-04-09T06:28:00.125Z, 77.7
2023-04-09T06:30:00.191Z, 81.5
2023-04-09T06:32:00.109Z, 83.9
2023-04-09T06:34:00.157Z, 85.5
2023-04-09T06:36:00.249Z, 85.2
2023-04-09T06:38:00.147Z, 84.6
2023-04-09T06:40:01.443Z, 84.9
2023-04-09T06:42:00.165Z, 83.1
2023-04-09T06:44:00.061Z, 80.7
2023-04-09T06:46:00.040Z, 76.3
2023-04-09T06:48:00.093Z, 76.4
2023-04-09T06:50:00.049Z, 76.4
2023-04-09T06:52:00.097Z, 76
2023-04-09T06:54:00.233Z, 75.8
2023-04-09T06:56:00.054Z, 73.2
2023-04-09T06:58:00.062Z, 70.1
2023-04-09T07:00:00.059Z, 68.6
2023-04-09T07:02:00.109Z, 67.9
2023-04-09T07:04:00.192Z, 64.9
2023-04-09T07:06:00.065Z, 64
2023-04-09T07:08:00.043Z, 63.6
2023-04-09T07:10:00.049Z, 63.7
2023-04-09T07:12:00.046Z, 64.4
2023-04-09T07:14:00.093Z, 63.1
2023-04-09T07:16:00.150Z, 63.6
2023-04-09T07:18:00.188Z, 63.1
2023-04-09T07:20:00.313Z, 62.9
2023-04-09T07:22:00.136Z, 64.2
2023-04-09T07:24:00.140Z, 64.7
2023-04-09T07:26:00.114Z, 65.1
2023-04-09T07:28:00.156Z, 64.8
2023-04-09T07:30:00.152Z, 63
2023-04-09T07:32:00.104Z, 63.1
2023-04-09T07:34:00.133Z, 62.6
2023-04-09T07:36:00.227Z, 61.2
2023-04-09T07:38:00.111Z, 60
2023-04-09T07:40:00.121Z, 61.6
2023-04-09T07:42:00.122Z, 62.3
2023-04-09T07:44:00.067Z, 65.1
2023-04-09T07:46:00.410Z, 71.9
2023-04-09T07:48:00.173Z, 76.6
2023-04-09T07:50:00.086Z, 78.4
2023-04-09T07:52:00.058Z, 80.3
2023-04-09T07:54:00.090Z, 80.2
2023-04-09T07:56:00.065Z, 79.6
2023-04-09T07:58:00.050Z, 77.7
2023-04-09T08:00:00.102Z, 77.5
2023-04-09T08:02:00.176Z, 75.8
2023-04-09T08:04:00.196Z, 71.3
2023-04-09T08:06:00.085Z, 68.6
2023-04-09T08:08:00.047Z, 66.3
2023-04-09T08:10:00.078Z, 62.1
2023-04-09T08:12:00.064Z, 60.8
2023-04-09T08:14:00.119Z, 61.2
2023-04-09T08:16:00.177Z, 61.5
2023-04-09T08:18:00.188Z, 61.6
2023-04-09T08:20:00.142Z, 60.8
2023-04-09T08:22:00.123Z, 60.6
2023-04-09T08:24:00.138Z, 60
2023-04-09T08:26:00.120Z, 59.6
2023-04-09T08:28:00.137Z, 57.5
2023-04-09T08:30:00.164Z, 57.3
2023-04-09T08:32:00.228Z, 59.3
2023-04-09T08:34:00.135Z, 59.9
2023-04-09T08:36:01.926Z, 57.6
2023-04-09T08:38:00.132Z, 58
2023-04-09T08:40:00.149Z, 55.8
2023-04-09T08:42:00.111Z, 56.3
2023-04-09T08:44:00.253Z, 58
2023-04-09T08:46:00.100Z, 57.9
2023-04-09T08:48:00.198Z, 56.1
2023-04-09T08:50:00.102Z, 55.1
2023-04-09T08:52:01.168Z, 53.4
2023-04-09T08:54:03.028Z, 57.9
2023-04-09T08:56:00.064Z, 58.8
2023-04-09T08:58:00.071Z, 58.9
2023-04-09T09:00:00.089Z, 55.1
2023-04-09T09:02:00.250Z, 53.4
2023-04-09T09:04:00.218Z, 53.8
2023-04-09T09:06:00.075Z, 54
2023-04-09T09:08:00.058Z, 55.2
2023-04-09T09:10:00.047Z, 56
2023-04-09T09:12:00.062Z, 55.3
2023-04-09T09:14:00.135Z, 54.9
2023-04-09T09:16:00.126Z, 54.3
2023-04-09T09:18:00.193Z, 53.3
2023-04-09T09:20:00.133Z, 53
2023-04-09T09:22:00.135Z, 52.5
2023-04-09T09:24:00.138Z, 54.2
2023-04-09T09:26:00.112Z, 56.3
2023-04-09T09:28:00.132Z, 56
2023-04-09T09:30:00.154Z, 55.9
2023-04-09T09:32:00.157Z, 55.9
2023-04-09T09:34:00.110Z, 55.9
2023-04-09T09:36:00.219Z, 53.7
2023-04-09T09:38:00.130Z, 54.1
2023-04-09T09:40:00.124Z, 53.7
2023-04-09T09:42:00.108Z, 52.8
2023-04-09T09:44:00.072Z, 52.6
2023-04-09T09:46:00.090Z, 51
2023-04-09T09:48:00.126Z, 51.8
2023-04-09T09:50:00.070Z, 54
2023-04-09T09:52:00.060Z, 54.1
2023-04-09T09:54:00.083Z, 53.6
2023-04-09T09:56:00.056Z, 54.3
2023-04-09T09:58:00.052Z, 53.5
2023-04-09T10:00:00.067Z, 53.2
2023-04-09T10:02:00.252Z, 55
2023-04-09T10:04:00.114Z, 56.4
2023-04-09T10:06:00.074Z, 55.4
2023-04-09T10:08:00.054Z, 56
2023-04-09T10:10:00.051Z, 54.1
2023-04-09T10:12:00.044Z, 52.4
2023-04-09T10:14:00.106Z, 51.7
2023-04-09T10:16:00.223Z, 51.1
2023-04-09T10:18:00.202Z, 54.5
2023-04-09T10:20:00.139Z, 54.6
2023-04-09T10:22:00.112Z, 55.1
2023-04-09T10:24:00.157Z, 53.5
2023-04-09T10:26:00.170Z, 53.5
2023-04-09T10:28:00.187Z, 52.9
2023-04-09T10:30:00.160Z, 53.1
2023-04-09T10:32:00.113Z, 53.5
2023-04-09T10:34:00.110Z, 54
2023-04-09T10:36:00.170Z, 54.6
2023-04-09T10:38:00.104Z, 53.4
2023-04-09T10:40:00.125Z, 52.7
2023-04-09T10:42:00.113Z, 50.4
2023-04-09T10:44:00.094Z, 49.3
2023-04-09T10:46:00.107Z, 49.7
2023-04-09T10:48:00.151Z, 49.7
2023-04-09T10:50:00.070Z, 50.7
2023-04-09T10:52:00.062Z, 50.9
2023-04-09T10:54:00.053Z, 49
2023-04-09T10:56:00.042Z, 48.8
2023-04-09T10:58:00.046Z, 48.7
2023-04-09T11:00:00.055Z, 47.5
2023-04-09T11:02:00.244Z, 48.1
2023-04-09T11:04:00.064Z, 49
2023-04-09T11:06:00.085Z, 48.4
2023-04-09T11:08:00.042Z, 46.7
2023-04-09T11:10:00.057Z, 45.5
2023-04-09T11:12:00.052Z, 44.3
2023-04-09T11:14:00.107Z, 44.7
2023-04-09T11:16:00.313Z, 47.4
2023-04-09T11:18:00.207Z, 49.1
2023-04-09T11:20:00.138Z, 49.1
2023-04-09T11:22:00.128Z, 47.3
2023-04-09T11:24:00.120Z, 48
2023-04-09T11:26:00.145Z, 48.9
2023-04-09T11:28:00.127Z, 48.1
2023-04-09T11:30:00.184Z, 49.5
2023-04-09T11:32:00.245Z, 47.8
2023-04-09T11:34:00.124Z, 48.7
2023-04-09T11:36:00.137Z, 48.3
2023-04-09T11:38:00.135Z, 48.6
2023-04-09T11:40:00.193Z, 49.6
2023-04-09T11:42:00.121Z, 50.2
2023-04-09T11:44:00.060Z, 49.2
2023-04-09T11:46:00.061Z, 48.5
2023-04-09T11:48:00.159Z, 49
2023-04-09T11:50:00.058Z, 50
2023-04-09T11:52:00.057Z, 49.1
2023-04-09T11:54:00.067Z, 48.7
2023-04-09T11:56:00.049Z, 48.7
2023-04-09T11:58:00.048Z, 48.4
2023-04-09T12:00:00.572Z, 47.9
2023-04-09T12:02:00.152Z, 48.2
2023-04-09T12:04:00.433Z, 48
2023-04-09T12:06:00.059Z, 48.7
2023-04-09T12:08:00.061Z, 49.1
2023-04-09T12:10:00.057Z, 48.2
2023-04-09T12:12:00.051Z, 47.2
2023-04-09T12:14:00.116Z, 46.1
2023-04-09T12:16:00.134Z, 47.6
2023-04-09T12:18:00.161Z, 47.2
2023-04-09T12:20:00.153Z, 46.2
2023-04-09T12:22:00.117Z, 46
2023-04-09T12:24:00.110Z, 44.7
2023-04-09T12:26:00.143Z, 44.3
2023-04-09T12:28:00.132Z, 45.3
2023-04-09T12:30:00.203Z, 45.5
2023-04-09T12:32:00.147Z, 45.5
2023-04-09T12:34:00.141Z, 45.2
2023-04-09T12:36:00.199Z, 46.3
2023-04-09T12:38:00.114Z, 44.9
2023-04-09T12:40:00.133Z, 44.8
2023-04-09T12:42:00.131Z, 44.4
2023-04-09T12:44:00.071Z, 44.2
2023-04-09T12:46:00.177Z, 43.2
2023-04-09T12:48:00.103Z, 43.3
2023-04-09T12:50:00.059Z, 42.7
2023-04-09T12:52:00.082Z, 42.4
2023-04-09T12:54:00.063Z, 41.7
2023-04-09T12:56:00.052Z, 43.1
2023-04-09T12:58:00.058Z, 43.9
2023-04-09T13:00:00.080Z, 44.8
2023-04-09T13:02:00.172Z, 43.8
2023-04-09T13:04:00.223Z, 43.4
2023-04-09T13:06:00.066Z, 44
2023-04-09T13:08:00.046Z, 43.8
2023-04-09T13:10:00.061Z, 44.8
2023-04-09T13:12:00.063Z, 44.1
2023-04-09T13:14:00.140Z, 45.3
2023-04-09T13:16:00.129Z, 44.7
2023-04-09T13:18:00.172Z, 45.1
2023-04-09T13:20:00.254Z, 45.2
2023-04-09T13:22:00.136Z, 45.8
2023-04-09T13:24:00.116Z, 45.8
2023-04-09T13:26:00.126Z, 46.8
2023-04-09T13:28:00.132Z, 47.4
2023-04-09T13:30:00.155Z, 47.2
2023-04-09T13:32:00.106Z, 48.1
2023-04-09T13:34:00.128Z, 47.6
2023-04-09T13:36:00.177Z, 48.1
2023-04-09T13:38:00.140Z, 47
2023-04-09T13:40:00.163Z, 47.1
2023-04-09T13:42:00.132Z, 46.5
2023-04-09T13:44:00.074Z, 46.2
2023-04-09T13:46:00.087Z, 45.5
2023-04-09T13:48:00.124Z, 44.7
2023-04-09T13:50:00.051Z, 45.3
2023-04-09T13:52:00.091Z, 44.2
2023-04-09T13:54:00.063Z, 43.7
2023-04-09T13:56:00.048Z, 44.7
2023-04-09T13:58:00.051Z, 45
2023-04-09T14:00:00.070Z, 45.1
2023-04-09T14:02:00.235Z, 45.2
2023-04-09T14:04:00.185Z, 45.5
2023-04-09T14:06:00.057Z, 47.1
2023-04-09T14:08:00.058Z, 47.5
2023-04-09T14:10:00.079Z, 47.1
2023-04-09T14:12:00.059Z, 46
2023-04-09T14:14:00.119Z, 46.1
2023-04-09T14:16:00.631Z, 45.5
2023-04-09T14:18:00.177Z, 46
2023-04-09T14:20:00.147Z, 46.3
2023-04-09T14:22:00.115Z, 46.9
2023-04-09T14:24:00.179Z, 46.6
2023-04-09T14:26:00.151Z, 45.2
2023-04-09T14:28:00.136Z, 43.4
2023-04-09T14:30:00.131Z, 44.4
2023-04-09T14:32:00.110Z, 44.2
2023-04-09T14:34:00.132Z, 43.6
2023-04-09T14:36:00.205Z, 44.4
2023-04-09T14:38:00.123Z, 43.9
2023-04-09T14:40:00.124Z, 43.3
2023-04-09T14:42:00.108Z, 44.3
2023-04-09T14:44:00.066Z, 45
2023-04-09T14:46:00.060Z, 44.8
2023-04-09T14:48:00.111Z, 45.2
2023-04-09T14:50:00.201Z, 45.4
2023-04-09T14:52:00.077Z, 44.6
2023-04-09T14:54:00.090Z, 44.9
2023-04-09T14:56:00.066Z, 45.2
2023-04-09T14:58:00.050Z, 43.7
2023-04-09T15:00:00.076Z, 43.5
2023-04-09T15:02:00.166Z, 42
2023-04-09T15:04:00.250Z, 39.8
2023-04-09T15:06:00.143Z, 39.7
2023-04-09T15:08:00.055Z, 37.9
2023-04-09T15:10:00.073Z, 36.6
2023-04-09T15:12:00.054Z, 36.1
2023-04-09T15:14:00.106Z, 36
2023-04-09T15:16:00.164Z, 34.7
2023-04-09T15:18:00.206Z, 34.2
2023-04-09T15:20:00.139Z, 33.8
2023-04-09T15:22:00.137Z, 33.6
2023-04-09T15:24:00.157Z, 35.4
2023-04-09T15:26:00.157Z, 36.5
2023-04-09T15:28:00.132Z, 37.9
2023-04-09T15:30:00.129Z, 38.5
2023-04-09T15:32:00.228Z, 38.7
2023-04-09T15:34:00.110Z, 38.5
2023-04-09T15:36:00.199Z, 38.8
2023-04-09T15:38:00.165Z, 38.4
2023-04-09T15:40:00.131Z, 38.8
2023-04-09T15:42:00.149Z, 37.6
2023-04-09T15:44:00.071Z, 36.8
2023-04-09T15:46:00.150Z, 36.7
2023-04-09T15:48:00.131Z, 37.2
2023-04-09T15:50:00.082Z, 37
2023-04-09T15:52:00.067Z, 37.5
2023-04-09T15:54:00.075Z, 36.1
2023-04-09T15:56:00.072Z, 36.4
2023-04-09T15:58:00.041Z, 37.9
2023-04-09T16:00:00.077Z, 36.3
2023-04-09T16:02:00.104Z, 36.4
2023-04-09T16:04:00.093Z, 36.5
2023-04-09T16:06:00.069Z, 37.1
2023-04-09T16:08:00.174Z, 38.8
2023-04-09T16:10:00.050Z, 38.1
2023-04-09T16:12:00.054Z, 39.8
2023-04-09T16:14:00.083Z, 39.5
2023-04-09T16:16:00.127Z, 38.4
2023-04-09T16:18:00.173Z, 37.3
2023-04-09T16:20:00.143Z, 35.8
2023-04-09T16:22:00.097Z, 36
2023-04-09T16:24:00.112Z, 37
2023-04-09T16:26:00.106Z, 36.3
2023-04-09T16:28:00.111Z, 35.9
2023-04-09T16:30:00.182Z, 36.4
2023-04-09T16:32:00.234Z, 36
2023-04-09T16:34:00.110Z, 37.1
2023-04-09T16:36:00.182Z, 37.1
2023-04-09T16:38:00.129Z, 38.2
2023-04-09T16:40:00.143Z, 38.1
2023-04-09T16:42:00.149Z, 36.8
2023-04-09T16:44:00.052Z, 36.5
2023-04-09T16:46:00.096Z, 37.7
2023-04-09T16:48:00.103Z, 38.7
2023-04-09T16:50:00.046Z, 38.8
2023-04-09T16:52:00.045Z, 39.8
2023-04-09T16:54:00.357Z, 42.1
2023-04-09T16:56:00.074Z, 46.9
2023-04-09T16:58:00.050Z, 44.5
2023-04-09T17:00:00.056Z, 43.9
2023-04-09T17:02:00.131Z, 42.9
2023-04-09T17:04:00.155Z, 43.6
2023-04-09T17:06:00.047Z, 44.5
2023-04-09T17:08:00.052Z, 44.1
2023-04-09T17:10:00.049Z, 42.2
2023-04-09T17:12:00.072Z, 43.3
2023-04-09T17:14:00.115Z, 43
2023-04-09T17:16:00.127Z, 42.9
2023-04-09T17:18:00.229Z, 43.1
2023-04-09T17:20:00.147Z, 44.3
2023-04-09T17:22:00.109Z, 45
2023-04-09T17:24:00.153Z, 45.8
2023-04-09T17:26:00.110Z, 44.2
2023-04-09T17:28:00.132Z, 43.4
2023-04-09T17:30:00.185Z, 43.7
2023-04-09T17:32:00.097Z, 43.4
2023-04-09T17:34:00.111Z, 42.9
2023-04-09T17:36:00.172Z, 43.6
2023-04-09T17:38:00.113Z, 44.1
2023-04-09T17:40:00.132Z, 44.6
2023-04-09T17:42:00.135Z, 45.2
2023-04-09T17:44:00.076Z, 46
2023-04-09T17:46:00.260Z, 45.7
2023-04-09T17:48:00.136Z, 45.9
2023-04-09T17:50:00.107Z, 45
2023-04-09T17:52:00.065Z, 45
2023-04-09T17:54:00.095Z, 45.5
2023-04-09T17:56:00.062Z, 46.2
2023-04-09T17:58:00.049Z, 48.2
2023-04-09T18:00:00.139Z, 49
2023-04-09T18:02:00.245Z, 50.1
2023-04-09T18:04:00.350Z, 51
2023-04-09T18:06:00.073Z, 51
2023-04-09T18:08:00.085Z, 51.8
2023-04-09T18:10:00.055Z, 52.8
2023-04-09T18:12:00.060Z, 54.6
2023-04-09T18:14:00.106Z, 56.7
2023-04-09T18:16:00.174Z, 57.6
2023-04-09T18:18:00.129Z, 58.7
2023-04-09T18:20:00.116Z, 60.2
2023-04-09T18:22:00.123Z, 61.3
2023-04-09T18:24:00.116Z, 61.9
2023-04-09T18:26:00.110Z, 62
2023-04-09T18:28:00.109Z, 62.2
2023-04-09T18:30:00.148Z, 62.2
2023-04-09T18:32:00.160Z, 61.9
2023-04-09T18:34:00.117Z, 62.1
2023-04-09T18:36:00.139Z, 61.6
2023-04-09T18:38:00.123Z, 62
2023-04-09T18:40:02.337Z, 62.4
2023-04-09T18:42:00.179Z, 62.5
2023-04-09T18:44:00.058Z, 63
2023-04-09T18:46:00.069Z, 63.5
2023-04-09T18:48:00.137Z, 64.6
2023-04-09T18:50:00.054Z, 65.1
2023-04-09T18:52:00.077Z, 65.4
2023-04-09T18:54:00.084Z, 65.8
2023-04-09T18:56:00.060Z, 65.6
2023-04-09T18:58:00.050Z, 65.8
2023-04-09T19:00:00.065Z, 66.7
2023-04-09T19:02:00.158Z, 67
2023-04-09T19:04:00.165Z, 67.1
2023-04-09T19:06:00.146Z, 67.6
2023-04-09T19:08:00.060Z, 67.9
2023-04-09T19:10:00.049Z, 68
2023-04-09T19:12:00.061Z, 67.3
2023-04-09T19:14:00.102Z, 67.4
2023-04-09T19:16:00.176Z, 67.7
2023-04-09T19:18:00.222Z, 68
2023-04-09T19:20:00.191Z, 67.8
2023-04-09T19:22:00.121Z, 67.5
2023-04-09T19:24:00.144Z, 67.5
2023-04-09T19:26:00.126Z, 67.8
2023-04-09T19:28:00.139Z, 68.4
2023-04-09T19:30:00.141Z, 68.7
2023-04-09T19:32:00.279Z, 68.6
2023-04-09T19:34:00.123Z, 69
2023-04-09T19:36:00.157Z, 69.4
2023-04-09T19:38:01.121Z, 69.6
2023-04-09T19:40:00.114Z, 69.8
2023-04-09T19:42:00.120Z, 76.7
2023-04-09T19:44:00.068Z, 79
2023-04-09T19:46:00.068Z, 79.2
2023-04-09T19:48:00.164Z, 78.3
2023-04-09T19:50:00.087Z, 78.7
2023-04-09T19:52:00.130Z, 78.1
2023-04-09T19:54:00.085Z, 76.9
2023-04-09T19:56:00.054Z, 75.6
2023-04-09T19:58:00.058Z, 74.7
2023-04-09T20:00:00.129Z, 74.5
2023-04-09T20:02:00.280Z, 74.2
2023-04-09T20:04:00.146Z, 73.6
2023-04-09T20:06:00.084Z, 73.7
2023-04-09T20:08:00.070Z, 74
2023-04-09T20:10:00.060Z, 74
2023-04-09T20:12:00.073Z, 73.8
2023-04-09T20:14:00.068Z, 74
2023-04-09T20:15:59.992Z, 74.4
2023-04-09T20:18:00.071Z, 74.6
2023-04-09T20:20:00.148Z, 74.2
2023-04-09T20:22:00.191Z, 73.4
2023-04-09T20:24:00.226Z, 73
2023-04-09T20:26:00.156Z, 72.4
2023-04-09T20:28:00.041Z, 73.1
2023-04-09T20:30:00.050Z, 74
2023-04-09T20:32:00.112Z, 74.1
2023-04-09T20:34:00.034Z, 74
2023-04-09T20:36:00.013Z, 73.6
2023-04-09T20:37:59.992Z, 73.2
2023-04-09T20:39:59.993Z, 73
2023-04-09T20:42:00.024Z, 73.7
2023-04-09T20:44:00.124Z, 74.1
2023-04-09T20:46:00.150Z, 74.2
2023-04-09T20:48:00.198Z, 75
2023-04-09T20:50:00.182Z, 75.2
2023-04-09T20:52:00.130Z, 76
2023-04-09T20:54:00.123Z, 75.6
2023-04-09T20:56:00.132Z, 75.9
2023-04-09T20:58:00.187Z, 75.7
2023-04-09T21:00:00.156Z, 75.5
2023-04-09T21:02:00.247Z, 74.4
2023-04-09T21:04:00.215Z, 74.1
2023-04-09T21:06:00.134Z, 74
2023-04-09T21:08:00.107Z, 73.9
2023-04-09T21:10:00.157Z, 73.2
2023-04-09T21:12:00.130Z, 72.5
2023-04-09T21:14:00.121Z, 71.2
2023-04-09T21:16:00.095Z, 70.7
2023-04-09T21:18:00.185Z, 70.6
2023-04-09T21:20:00.079Z, 72
2023-04-09T21:22:00.073Z, 73.7
2023-04-09T21:24:00.108Z, 75.2
2023-04-09T21:26:00.092Z, 76.3
2023-04-09T21:28:00.052Z, 77.2
2023-04-09T21:30:00.074Z, 77
2023-04-09T21:32:00.068Z, 76.4
2023-04-09T21:34:00.079Z, 76.2
2023-04-09T21:36:00.129Z, 76.3
2023-04-09T21:38:00.056Z, 76.4
2023-04-09T21:40:00.069Z, 76.4
2023-04-09T21:42:00.066Z, 77.2
2023-04-09T21:44:00.106Z, 77.7
2023-04-09T21:46:00.153Z, 78.6
2023-04-09T21:48:00.213Z, 78.4
2023-04-09T21:50:00.161Z, 79.6
2023-04-09T21:52:00.129Z, 79.1
2023-04-09T21:54:00.170Z, 78.5
2023-04-09T21:56:00.845Z, 78.2
2023-04-09T21:58:00.145Z, 78.2
2023-04-09T22:00:00.171Z, 79.6
2023-04-09T22:02:00.257Z, 80.7
2023-04-09T22:04:00.224Z, 81.1
2023-04-09T22:06:00.143Z, 81.3
2023-04-09T22:08:00.128Z, 81.3
2023-04-09T22:10:00.167Z, 81.4
2023-04-09T22:12:00.165Z, 81.1
2023-04-09T22:14:00.102Z, 80.9
2023-04-09T22:16:00.123Z, 80.7
2023-04-09T22:18:00.140Z, 80.8
2023-04-09T22:20:00.073Z, 81.2
2023-04-09T22:22:00.078Z, 81.9
2023-04-09T22:24:00.109Z, 81.5
2023-04-09T22:26:00.050Z, 81
2023-04-09T22:28:00.075Z, 80.1
2023-04-09T22:30:00.075Z, 80.8
2023-04-09T22:32:00.070Z, 80.8
2023-04-09T22:34:02.140Z, 80.2
2023-04-09T22:36:00.235Z, 79.4
2023-04-09T22:38:00.058Z, 79.2
2023-04-09T22:40:00.048Z, 79
2023-04-09T22:42:00.069Z, 79.5
2023-04-09T22:44:00.118Z, 79.7
2023-04-09T22:46:00.104Z, 79.7
2023-04-09T22:48:00.166Z, 79.3
2023-04-09T22:50:00.135Z, 78
2023-04-09T22:52:00.139Z, 79.4
2023-04-09T22:54:00.129Z, 80
2023-04-09T22:56:00.157Z, 80.1
2023-04-09T22:58:00.170Z, 80.4
2023-04-09T23:00:00.232Z, 80
2023-04-09T23:02:00.255Z, 80.5
2023-04-09T23:04:00.128Z, 81.1
2023-04-09T23:06:00.137Z, 80.8
2023-04-09T23:08:00.113Z, 80.6
2023-04-09T23:10:00.146Z, 79.3
2023-04-09T23:12:00.142Z, 78.9
2023-04-09T23:14:00.070Z, 79
2023-04-09T23:16:00.131Z, 78.5
2023-04-09T23:18:00.136Z, 78.6
2023-04-09T23:20:00.068Z, 78.8
2023-04-09T23:22:00.087Z, 79.1
2023-04-09T23:24:00.100Z, 78.7
2023-04-09T23:26:00.091Z, 79
2023-04-09T23:28:00.073Z, 79.8
2023-04-09T23:32:33.483Z, 79.9
2023-04-09T23:32:34.077Z, 79.9
2023-04-09T23:34:00.104Z, 79.6
2023-04-09T23:36:00.117Z, 78.7
2023-04-09T23:38:00.092Z, 78.5
2023-04-09T23:40:00.113Z, 79.2
2023-04-09T23:42:00.121Z, 79.9
2023-04-09T23:44:00.135Z, 80.3
2023-04-09T23:46:00.123Z, 81.5
2023-04-09T23:48:00.240Z, 82.1
2023-04-09T23:50:00.129Z, 83
2023-04-09T23:52:00.122Z, 83.6
2023-04-09T23:54:00.118Z, 84.1
2023-04-09T23:56:00.108Z, 84.2
2023-04-09T23:58:00.107Z, 83.9
